Time;durP1;ratioP1;P1;durP2;ratioP2;P2;SDS_P1;SDS_P2;PMS_P1;PMS_P2;Temp;Humidity;BMP_temperature;BMP_pressure;BME280_temperature;BME280_humidity;BME280_pressure;Samples;Min_cycle;Max_cycle;Signal;HPM_P1;HPM_P2
2023/12/16 00:02:01;;;;;;;3.43;0.90;;;32.00;27.50;;;;;;5049504;28;20184;-72
2023/12/16 00:04:31;;;;;;;3.42;0.82;;;32.20;27.00;;;;;;5046538;28;20223;-69
2023/12/16 00:06:58;;;;;;;4.07;1.00;;;32.30;27.80;;;;;;5032854;28;20526;-68
2023/12/16 00:09:25;;;;;;;1.70;1.20;;;32.40;27.00;;;;;;5034822;28;20238;-69
2023/12/16 00:11:54;;;;;;;3.33;1.20;;;32.40;25.20;;;;;;5038937;28;20185;-73
2023/12/16 00:14:21;;;;;;;1.60;0.98;;;32.50;24.20;;;;;;5038757;28;20531;-69
2023/12/16 00:16:48;;;;;;;2.38;0.77;;;32.40;24.10;;;;;;5049482;28;20181;-69
2023/12/16 00:19:16;;;;;;;6.97;1.08;;;32.40;23.90;;;;;;5042689;28;20216;-70
2023/12/16 00:21:43;;;;;;;2.53;1.10;;;32.10;26.00;;;;;;5033120;28;20879;-73
2023/12/16 00:24:10;;;;;;;5.55;1.15;;;32.00;26.20;;;;;;5050269;28;20207;-68
2023/12/16 00:26:38;;;;;;;2.93;1.03;;;32.10;26.00;;;;;;5049230;28;20191;-70
2023/12/16 00:29:08;;;;;;;3.58;0.90;;;32.00;22.80;;;;;;5051087;28;20267;-75
2023/12/16 00:31:35;;;;;;;3.53;0.70;;;32.30;22.50;;;;;;5050360;28;20199;-68
2023/12/16 00:34:04;;;;;;;3.70;0.70;;;32.50;22.80;;;;;;5046446;28;20237;-72
2023/12/16 00:36:31;;;;;;;1.38;0.70;;;32.70;22.60;;;;;;5042726;28;20303;-69
2023/12/16 00:38:59;;;;;;;1.73;0.80;;;32.50;22.30;;;;;;5038773;28;20278;-73
2023/12/16 00:41:26;;;;;;;2.05;0.80;;;32.40;21.30;;;;;;5039216;28;20261;-72
2023/12/16 00:43:54;;;;;;;2.05;0.70;;;32.40;21.60;;;;;;5041690;28;20196;-71
2023/12/16 00:46:21;;;;;;;2.83;0.80;;;32.60;21.10;;;;;;5038109;28;20180;-67
2023/12/16 00:48:48;;;;;;;1.52;0.63;;;32.80;20.90;;;;;;5043771;28;20669;-72
2023/12/16 00:51:15;;;;;;;0.70;0.55;;;33.00;19.80;;;;;;5042716;28;20199;-72
2023/12/16 00:53:43;;;;;;;1.55;0.90;;;33.10;20.30;;;;;;5038125;28;20173;-70
2023/12/16 00:56:10;;;;;;;1.33;0.70;;;33.30;20.50;;;;;;5037711;28;20228;-68
2023/12/16 00:58:37;;;;;;;2.20;0.70;;;33.80;20.30;;;;;;5054401;28;20183;-72
2023/12/16 01:01:05;;;;;;;1.45;0.57;;;33.70;19.40;;;;;;5040505;28;20690;-70
2023/12/16 01:03:32;;;;;;;4.13;0.70;;;33.60;19.30;;;;;;5042428;28;20176;-76
2023/12/16 01:06:00;;;;;;;1.17;0.77;;;33.70;19.40;;;;;;5044158;28;20188;-72
2023/12/16 01:08:27;;;;;;;0.88;0.88;;;33.80;19.20;;;;;;5042992;28;20184;-75
2023/12/16 01:10:54;;;;;;;3.95;0.73;;;33.70;18.00;;;;;;5037479;28;20263;-72
2023/12/16 01:13:21;;;;;;;2.17;0.60;;;33.70;18.00;;;;;;5037030;28;20195;-70
2023/12/16 01:15:49;;;;;;;1.15;0.60;;;33.90;18.50;;;;;;5037904;28;20321;-77
2023/12/16 01:18:16;;;;;;;3.58;0.60;;;34.00;18.10;;;;;;5049103;28;20549;-73
2023/12/16 01:20:44;;;;;;;3.78;0.55;;;34.20;17.90;;;;;;5037671;28;20238;-73
2023/12/16 01:23:11;;;;;;;0.77;0.50;;;34.10;16.60;;;;;;5050375;28;20542;-75
2023/12/16 01:25:38;;;;;;;1.27;0.60;;;33.90;16.90;;;;;;5054914;28;20183;-72
2023/12/16 01:28:06;;;;;;;1.63;0.65;;;34.00;16.70;;;;;;5046876;28;20180;-69
2023/12/16 01:30:33;;;;;;;1.05;0.55;;;34.00;17.10;;;;;;5040153;28;20185;-74
2023/12/16 01:33:00;;;;;;;1.65;0.50;;;34.10;16.90;;;;;;5048034;28;20184;-73
2023/12/16 01:35:28;;;;;;;2.88;0.60;;;34.10;17.20;;;;;;5047325;28;20710;-74
2023/12/16 01:37:55;;;;;;;1.52;0.38;;;34.40;17.20;;;;;;5037759;28;20243;-76
2023/12/16 01:40:22;;;;;;;1.92;0.50;;;34.20;16.50;;;;;;5036242;28;20272;-74
2023/12/16 01:42:49;;;;;;;2.83;0.50;;;34.30;16.50;;;;;;5037474;28;20184;-72
2023/12/16 01:45:18;;;;;;;2.83;0.63;;;34.30;16.30;;;;;;5037572;28;20544;-70
2023/12/16 01:47:46;;;;;;;2.72;0.65;;;34.40;16.80;;;;;;5036903;28;20172;-73
2023/12/16 01:50:13;;;;;;;2.78;0.50;;;34.70;16.60;;;;;;5037048;28;20176;-69
2023/12/16 01:52:44;;;;;;;7.13;0.60;;;34.60;16.30;;;;;;5037236;28;20266;-73
2023/12/16 01:55:13;;;;;;;5.35;0.57;;;35.00;15.90;;;;;;5037253;28;20189;-76
2023/12/16 01:57:42;;;;;;;1.58;0.52;;;34.90;15.30;;;;;;5037204;28;20185;-66
2023/12/16 02:00:09;;;;;;;1.75;0.50;;;34.80;14.80;;;;;;5044263;28;20227;-66
2023/12/16 02:02:37;;;;;;;3.88;0.75;;;35.00;16.00;;;;;;5039277;28;20219;-71
2023/12/16 02:05:04;;;;;;;1.08;0.63;;;35.00;15.60;;;;;;5036524;28;20589;-66
2023/12/16 02:07:32;;;;;;;2.22;0.60;;;34.80;15.80;;;;;;5038363;28;20270;-70
2023/12/16 02:10:01;;;;;;;1.52;0.82;;;35.10;16.00;;;;;;5036901;28;20192;-65
2023/12/16 02:12:36;;;;;;;1.33;0.50;;;35.00;16.50;;;;;;5039439;28;20260;-64
2023/12/16 02:15:05;;;;;;;1.08;0.70;;;35.00;16.70;;;;;;5039338;28;20191;-66
2023/12/16 02:17:32;;;;;;;3.13;0.70;;;35.50;17.50;;;;;;5038052;28;20180;-74
2023/12/16 02:19:59;;;;;;;1.05;0.50;;;35.60;16.10;;;;;;5046789;28;20777;-73
2023/12/16 02:22:27;;;;;;;0.88;0.60;;;35.50;15.80;;;;;;5037104;28;20643;-74
2023/12/16 02:24:55;;;;;;;1.33;0.65;;;35.50;16.20;;;;;;5038823;28;20792;-74
2023/12/16 02:27:26;;;;;;;7.03;0.73;;;35.60;16.20;;;;;;5036540;28;20204;-74
2023/12/16 02:29:53;;;;;;;1.73;0.65;;;35.60;16.30;;;;;;5036764;28;20177;-74
2023/12/16 02:32:21;;;;;;;1.73;0.68;;;35.80;16.60;;;;;;5038280;28;20235;-74
2023/12/16 02:34:49;;;;;;;2.15;0.88;;;35.80;16.00;;;;;;5034662;28;20216;-74
2023/12/16 02:37:16;;;;;;;1.60;0.70;;;35.70;15.90;;;;;;5045187;28;20262;-70
2023/12/16 02:39:44;;;;;;;1.98;0.80;;;35.60;15.00;;;;;;5037036;28;20216;-72
2023/12/16 02:42:11;;;;;;;2.15;0.70;;;35.80;15.20;;;;;;5047583;28;20274;-70
2023/12/16 02:44:38;;;;;;;1.80;0.80;;;35.60;14.80;;;;;;5036265;28;20690;-72
2023/12/16 02:47:07;;;;;;;1.00;0.50;;;35.80;15.50;;;;;;5036029;28;20177;-73
2023/12/16 02:49:35;;;;;;;1.92;0.70;;;36.00;14.70;;;;;;5046464;28;20192;-67
2023/12/16 02:52:02;;;;;;;2.83;0.70;;;36.20;14.90;;;;;;5068076;28;20242;-76
2023/12/16 02:54:30;;;;;;;1.75;0.80;;;36.40;15.20;;;;;;5036230;28;20262;-68
2023/12/16 02:56:57;;;;;;;1.35;0.80;;;36.80;15.00;;;;;;5044167;28;20176;-71
2023/12/16 02:59:25;;;;;;;1.50;0.52;;;36.60;14.00;;;;;;5036653;28;20208;-67
2023/12/16 03:01:52;;;;;;;0.98;0.60;;;36.30;14.30;;;;;;5034738;28;20705;-73
2023/12/16 03:04:19;;;;;;;1.75;0.60;;;36.20;13.70;;;;;;5035866;28;20181;-69
2023/12/16 03:06:47;;;;;;;2.38;0.65;;;36.30;13.50;;;;;;5047768;28;20234;-76
2023/12/16 03:09:14;;;;;;;0.75;0.50;;;36.30;13.70;;;;;;5035867;28;20524;-69
2023/12/16 03:11:45;;;;;;;2.67;0.40;;;36.30;13.50;;;;;;5038269;28;20184;-71
2023/12/16 03:14:12;;;;;;;1.35;0.52;;;36.60;13.60;;;;;;5067734;28;20229;-73
2023/12/16 03:16:40;;;;;;;0.88;0.45;;;36.40;12.90;;;;;;5035982;28;20184;-69
2023/12/16 03:19:07;;;;;;;2.03;0.60;;;36.40;13.20;;;;;;5035453;28;20216;-73
2023/12/16 03:21:34;;;;;;;0.75;0.50;;;36.50;13.20;;;;;;5035159;28;20185;-66
2023/12/16 03:24:03;;;;;;;1.65;0.43;;;36.90;12.70;;;;;;5041589;28;20187;-73
2023/12/16 03:26:31;;;;;;;1.67;0.60;;;37.00;13.00;;;;;;5044769;28;20185;-66
2023/12/16 03:28:58;;;;;;;0.85;0.32;;;37.40;13.10;;;;;;5041387;28;20180;-67
2023/12/16 03:31:25;;;;;;;1.90;0.70;;;37.60;13.20;;;;;;5042040;28;20220;-66
2023/12/16 03:33:53;;;;;;;0.52;0.50;;;37.10;12.90;;;;;;5033588;28;20180;-68
2023/12/16 03:36:20;;;;;;;1.92;0.65;;;37.40;13.10;;;;;;5042044;28;20184;-66
2023/12/16 03:38:48;;;;;;;2.22;0.60;;;37.40;13.00;;;;;;5039521;28;20188;-71
2023/12/16 03:41:15;;;;;;;2.00;0.40;;;37.90;13.00;;;;;;5038963;28;20226;-66
2023/12/16 03:43:42;;;;;;;1.38;0.50;;;37.90;12.60;;;;;;5039114;28;20233;-73
2023/12/16 03:46:09;;;;;;;1.48;0.73;;;37.90;12.90;;;;;;5060360;28;20181;-67
2023/12/16 03:48:37;;;;;;;1.35;0.60;;;37.80;12.80;;;;;;5036482;28;20220;-73
2023/12/16 03:51:04;;;;;;;1.65;0.73;;;37.60;13.00;;;;;;5034841;28;20184;-65
2023/12/16 03:53:32;;;;;;;2.50;0.70;;;37.40;13.20;;;;;;5035446;28;20192;-74
2023/12/16 03:55:59;;;;;;;2.80;0.60;;;37.30;12.90;;;;;;5035616;28;20248;-67
2023/12/16 03:58:26;;;;;;;1.30;0.68;;;37.50;12.90;;;;;;5048270;28;20262;-68
2023/12/16 04:00:54;;;;;;;2.88;1.05;;;38.30;12.90;;;;;;5042706;28;20223;-73
2023/12/16 04:03:21;;;;;;;5.82;1.90;;;38.80;15.40;;;;;;5037644;28;20187;-68
2023/12/16 04:05:49;;;;;;;5.75;1.90;;;38.40;22.60;;;;;;5052274;28;20172;-68
2023/12/16 04:08:16;;;;;;;4.88;2.30;;;38.40;24.00;;;;;;5052152;28;20657;-69
2023/12/16 04:10:44;;;;;;;4.50;1.83;;;37.30;25.20;;;;;;5053042;28;20180;-66
2023/12/16 04:13:12;;;;;;;7.55;1.83;;;37.20;25.80;;;;;;5052913;28;20638;-74
2023/12/16 04:15:39;;;;;;;3.28;1.90;;;36.60;26.30;;;;;;5050847;28;20191;-74
2023/12/16 04:18:06;;;;;;;5.65;2.33;;;36.20;26.90;;;;;;5052569;28;20250;-74
2023/12/16 04:20:34;;;;;;;7.47;2.60;;;36.40;28.60;;;;;;5052369;28;20220;-74
2023/12/16 04:23:02;;;;;;;5.13;2.80;;;37.00;29.60;;;;;;5052403;28;20172;-71
2023/12/16 04:25:29;;;;;;;7.03;2.17;;;37.20;29.80;;;;;;5052550;28;20183;-72
2023/12/16 04:27:57;;;;;;;7.50;2.70;;;36.00;31.00;;;;;;5051185;28;20187;-69
2023/12/16 04:30:24;;;;;;;6.22;2.67;;;36.30;30.60;;;;;;5046150;28;20194;-68
2023/12/16 04:32:52;;;;;;;5.13;2.00;;;36.20;29.80;;;;;;5046368;28;20305;-67
2023/12/16 04:35:19;;;;;;;7.03;2.17;;;35.90;29.40;;;;;;5046947;28;20287;-70
2023/12/16 04:37:48;;;;;;;6.70;2.05;;;36.20;28.50;;;;;;5051664;28;20232;-70
2023/12/16 04:40:15;;;;;;;3.95;2.20;;;36.00;29.10;;;;;;5051976;28;20230;-72
2023/12/16 04:42:43;;;;;;;5.68;2.40;;;36.10;29.50;;;;;;5052120;28;20212;-69
2023/12/16 04:45:10;;;;;;;10.90;2.22;;;36.30;28.90;;;;;;5051886;28;20198;-71
2023/12/16 04:47:38;;;;;;;4.75;2.03;;;36.50;28.30;;;;;;5051286;28;20214;-71
2023/12/16 04:50:09;;;;;;;3.88;1.88;;;36.80;27.20;;;;;;5042709;28;20180;-70
2023/12/16 04:52:36;;;;;;;3.35;1.40;;;37.10;25.60;;;;;;5052103;28;20591;-70
2023/12/16 04:55:04;;;;;;;3.08;1.35;;;37.40;24.80;;;;;;5052231;28;20234;-76
2023/12/16 04:57:31;;;;;;;3.85;1.40;;;37.00;24.10;;;;;;5051867;28;20707;-71
2023/12/16 04:59:59;;;;;;;6.65;1.35;;;36.60;24.00;;;;;;5052090;28;20619;-74
2023/12/16 05:02:29;;;;;;;2.67;1.17;;;36.50;24.00;;;;;;5044939;28;20260;-73
2023/12/16 05:04:56;;;;;;;3.97;1.33;;;36.20;24.60;;;;;;5042104;28;20548;-72
2023/12/16 05:07:24;;;;;;;3.80;1.50;;;35.70;25.40;;;;;;5050643;28;20211;-71
2023/12/16 05:09:51;;;;;;;8.93;1.58;;;35.50;25.60;;;;;;5050683;28;20635;-73
2023/12/16 05:12:18;;;;;;;4.15;1.55;;;35.30;25.90;;;;;;5051991;28;20688;-71
2023/12/16 05:14:46;;;;;;;2.72;1.20;;;35.30;26.10;;;;;;5052654;28;20195;-70
2023/12/16 05:17:13;;;;;;;3.78;1.27;;;35.70;25.60;;;;;;5054903;28;20214;-71
2023/12/16 05:19:40;;;;;;;2.30;1.40;;;36.80;24.50;;;;;;5054074;28;20237;-71
2023/12/16 05:22:07;;;;;;;4.32;1.40;;;36.00;24.30;;;;;;5055334;28;20172;-73
2023/12/16 05:24:35;;;;;;;3.17;1.20;;;35.00;25.10;;;;;;5055150;28;20187;-72
2023/12/16 05:27:02;;;;;;;4.18;1.20;;;34.10;25.80;;;;;;5054927;28;20176;-71
2023/12/16 05:29:29;;;;;;;2.20;1.17;;;33.70;26.40;;;;;;5052764;28;20651;-71
2023/12/16 05:31:57;;;;;;;3.03;1.20;;;34.40;25.00;;;;;;5053497;28;20180;-70
2023/12/16 05:34:24;;;;;;;4.13;1.35;;;34.10;25.00;;;;;;5049256;28;20222;-71
2023/12/16 05:36:52;;;;;;;4.10;1.33;;;35.60;24.10;;;;;;5054459;28;20231;-72
2023/12/16 05:39:20;;;;;;;4.80;1.40;;;36.90;22.50;;;;;;5053802;28;20204;-70
2023/12/16 05:41:49;;;;;;;3.47;1.20;;;36.50;22.60;;;;;;5053647;28;20642;-73
2023/12/16 05:44:17;;;;;;;2.67;1.10;;;37.10;22.30;;;;;;5054985;28;20328;-71
2023/12/16 05:46:44;;;;;;;3.25;1.38;;;37.00;22.10;;;;;;5054502;28;20200;-67
2023/12/16 05:49:12;;;;;;;2.72;1.15;;;36.00;22.90;;;;;;5054625;28;20273;-67
2023/12/16 05:51:48;;;;;;;2.97;1.23;;;35.30;23.60;;;;;;5053615;28;20183;-71
2023/12/16 05:54:16;;;;;;;3.92;1.40;;;35.30;24.10;;;;;;5054295;28;20191;-72
2023/12/16 05:56:43;;;;;;;3.53;1.40;;;35.40;25.10;;;;;;5054727;28;20673;-70
2023/12/16 05:59:10;;;;;;;3.78;1.65;;;35.00;27.50;;;;;;5054227;28;20230;-71
2023/12/16 06:01:38;;;;;;;6.60;2.33;;;35.10;28.80;;;;;;5052667;28;20182;-71
2023/12/16 06:04:05;;;;;;;5.45;2.38;;;36.80;30.80;;;;;;5052391;28;20180;-65
2023/12/16 06:06:35;;;;;;;5.60;2.15;;;36.40;32.80;;;;;;5054173;28;20263;-69
2023/12/16 06:09:03;;;;;;;6.95;2.35;;;35.90;33.80;;;;;;5053594;28;20293;-73
2023/12/16 06:11:30;;;;;;;5.40;2.63;;;35.50;34.30;;;;;;5046820;28;20176;-68
2023/12/16 06:13:57;;;;;;;6.97;2.28;;;34.90;35.70;;;;;;5053127;28;20642;-71
2023/12/16 06:16:26;;;;;;;8.65;3.00;;;33.90;37.40;;;;;;5054353;28;20550;-66
2023/12/16 06:18:53;;;;;;;8.55;2.70;;;33.40;38.40;;;;;;5054259;28;20180;-67
2023/12/16 06:21:20;;;;;;;7.15;2.70;;;33.60;40.20;;;;;;5053875;28;20176;-71
2023/12/16 06:23:48;;;;;;;8.75;2.80;;;34.40;36.60;;;;;;5052128;28;20176;-70
2023/12/16 06:26:15;;;;;;;6.43;2.78;;;34.90;35.70;;;;;;5050060;28;20247;-68
2023/12/16 06:28:42;;;;;;;7.55;2.78;;;34.10;37.60;;;;;;5054578;28;20186;-68
2023/12/16 06:31:20;;;;;;;4.97;2.40;;;34.00;36.90;;;;;;5052440;28;20172;-67
2023/12/16 06:33:47;;;;;;;8.02;2.45;;;32.80;38.80;;;;;;5047997;28;20204;-67
2023/12/16 06:36:18;;;;;;;6.18;2.35;;;32.20;39.80;;;;;;5050852;28;20180;-67
2023/12/16 06:38:45;;;;;;;7.10;2.33;;;33.20;38.50;;;;;;5053013;28;20175;-66
2023/12/16 06:41:15;;;;;;;5.45;2.65;;;33.80;34.90;;;;;;5052937;28;20187;-69
2023/12/16 06:43:42;;;;;;;6.10;2.35;;;34.80;32.80;;;;;;5053974;28;20187;-70
2023/12/16 06:46:09;;;;;;;5.18;1.95;;;34.30;30.60;;;;;;5053214;28;20555;-71
2023/12/16 06:48:37;;;;;;;9.20;2.78;;;33.80;31.90;;;;;;5053266;28;20300;-70
2023/12/16 06:51:04;;;;;;;8.00;2.67;;;34.50;33.40;;;;;;5051828;28;20592;-71
2023/12/16 06:53:35;;;;;;;9.05;3.15;;;35.20;33.80;;;;;;5053368;28;20190;-71
2023/12/16 06:56:03;;;;;;;10.50;2.42;;;34.40;37.80;;;;;;5052602;28;20172;-69
2023/12/16 06:58:32;;;;;;;8.32;2.80;;;33.30;38.50;;;;;;5052951;28;20180;-71
2023/12/16 07:00:59;;;;;;;5.88;2.88;;;32.30;40.70;;;;;;5053063;28;20219;-72
2023/12/16 07:03:28;;;;;;;9.18;2.60;;;33.10;38.80;;;;;;5049435;28;20194;-72
2023/12/16 07:05:56;;;;;;;5.10;2.75;;;33.60;35.70;;;;;;5044494;28;20538;-73
2023/12/16 07:08:23;;;;;;;6.63;2.70;;;34.50;34.30;;;;;;5079328;28;20179;-69
2023/12/16 07:10:50;;;;;;;8.98;3.15;;;34.30;35.60;;;;;;5051569;28;20179;-73
2023/12/16 07:13:18;;;;;;;7.13;2.55;;;34.30;36.80;;;;;;5052365;28;20263;-72
2023/12/16 07:15:45;;;;;;;8.38;3.13;;;33.70;38.00;;;;;;5041174;28;20186;-68
2023/12/16 07:18:12;;;;;;;5.47;2.70;;;33.30;38.30;;;;;;5053089;28;20187;-74
2023/12/16 07:20:40;;;;;;;7.30;2.97;;;32.80;39.80;;;;;;5052223;28;20217;-71
2023/12/16 07:23:08;;;;;;;6.03;2.75;;;32.80;40.80;;;;;;5048304;28;20239;-70
2023/12/16 07:25:35;;;;;;;6.95;2.85;;;32.00;42.00;;;;;;5053084;28;20229;-72
2023/12/16 07:28:03;;;;;;;6.70;2.90;;;31.30;45.20;;;;;;5052484;28;20172;-76
2023/12/16 07:30:30;;;;;;;10.98;3.30;;;31.20;45.80;;;;;;5049390;28;20180;-72
2023/12/16 07:32:57;;;;;;;5.68;3.10;;;31.00;45.20;;;;;;5050816;28;20859;-72
2023/12/16 07:35:25;;;;;;;11.18;5.57;;;30.50;47.50;;;;;;5038524;28;20223;-71
2023/12/16 07:37:52;;;;;;;9.38;4.20;;;29.90;50.20;;;;;;5048460;28;20233;-70
2023/12/16 07:40:20;;;;;;;11.25;4.10;;;29.90;49.50;;;;;;5051706;28;20249;-70
2023/12/16 07:42:47;;;;;;;8.20;3.53;;;29.60;49.40;;;;;;5052737;28;20258;-71
2023/12/16 07:45:17;;;;;;;7.40;3.17;;;29.60;48.80;;;;;;5052491;28;20271;-71
2023/12/16 07:47:45;;;;;;;8.65;3.00;;;29.60;47.80;;;;;;5051650;28;20203;-74
2023/12/16 07:50:16;;;;;;;6.20;3.00;;;29.30;46.70;;;;;;5052092;28;20241;-72
2023/12/16 07:52:44;;;;;;;9.97;3.27;;;28.90;48.50;;;;;;5050498;28;20168;-71
2023/12/16 07:55:12;;;;;;;6.13;3.13;;;28.70;49.50;;;;;;5051665;28;20183;-72
2023/12/16 07:57:39;;;;;;;9.30;3.23;;;28.50;51.10;;;;;;5052701;28;20198;-72
2023/12/16 08:00:09;;;;;;;8.83;3.70;;;28.30;51.00;;;;;;5052151;28;20677;-71
2023/12/16 08:02:36;;;;;;;12.27;3.40;;;28.20;51.20;;;;;;5052365;28;20187;-72
2023/12/16 08:05:04;;;;;;;7.00;3.20;;;28.30;50.00;;;;;;5051975;28;20179;-69
2023/12/16 08:07:31;;;;;;;8.87;3.70;;;28.30;51.00;;;;;;5047938;28;20180;-71
2023/12/16 08:09:58;;;;;;;8.47;3.37;;;28.10;51.90;;;;;;5048054;28;20179;-67
2023/12/16 08:12:26;;;;;;;8.30;3.87;;;28.20;52.40;;;;;;5050643;28;20196;-66
2023/12/16 08:14:53;;;;;;;7.53;3.83;;;28.20;52.70;;;;;;5052024;28;20223;-72
2023/12/16 08:17:21;;;;;;;5.40;2.93;;;28.20;53.50;;;;;;5051987;28;20175;-66
2023/12/16 08:19:48;;;;;;;13.30;3.73;;;28.20;54.10;;;;;;5051970;28;20204;-71
2023/12/16 08:22:16;;;;;;;12.37;4.63;;;28.10;54.70;;;;;;5052260;28;20282;-65
2023/12/16 08:24:43;;;;;;;7.30;3.43;;;28.00;55.20;;;;;;5050595;28;20188;-71
2023/12/16 08:27:10;;;;;;;12.70;4.07;;;28.10;55.10;;;;;;5052415;28;20163;-68
2023/12/16 08:29:38;;;;;;;9.80;4.27;;;28.00;54.50;;;;;;5046116;28;20615;-69
2023/12/16 08:32:05;;;;;;;8.67;3.40;;;27.90;54.60;;;;;;5049115;28;20165;-66
2023/12/16 08:34:35;;;;;;;7.53;2.70;;;28.00;54.60;;;;;;5051677;28;20176;-67
2023/12/16 08:37:03;;;;;;;9.37;3.30;;;27.90;50.90;;;;;;5048514;28;20220;-70
2023/12/16 08:39:30;;;;;;;9.90;4.23;;;27.70;56.70;;;;;;5038105;28;20211;-65
2023/12/16 08:41:58;;;;;;;11.63;4.03;;;27.40;61.70;;;;;;5052455;28;20210;-68
2023/12/16 08:44:25;;;;;;;9.43;4.13;;;27.20;64.20;;;;;;5052348;28;20280;-66
2023/12/16 08:46:52;;;;;;;12.03;3.57;;;27.00;65.60;;;;;;5049895;28;20177;-66
2023/12/16 08:49:20;;;;;;;10.97;3.67;;;26.80;67.00;;;;;;5054135;28;20634;-68
2023/12/16 08:51:48;;;;;;;9.70;2.70;;;26.60;70.10;;;;;;5055569;28;20207;-69
2023/12/16 08:54:16;;;;;;;18.27;3.23;;;26.50;70.60;;;;;;5045124;28;20199;-68
2023/12/16 08:56:43;;;;;;;19.00;4.13;;;26.30;71.70;;;;;;5052120;28;20177;-70
2023/12/16 08:59:11;;;;;;;12.63;2.90;;;26.10;72.30;;;;;;5055676;28;20202;-66
2023/12/16 09:01:38;;;;;;;16.87;3.43;;;25.80;73.10;;;;;;5055485;28;20172;-66
2023/12/16 09:04:05;;;;;;;11.13;2.93;;;25.60;73.40;;;;;;5055715;28;20187;-68
2023/12/16 09:06:37;;;;;;;17.00;3.27;;;25.50;73.80;;;;;;5055693;28;20207;-70
2023/12/16 09:09:04;;;;;;;16.07;3.10;;;25.30;74.80;;;;;;5047920;28;20292;-66
2023/12/16 09:11:31;;;;;;;18.43;3.50;;;25.30;75.00;;;;;;5048954;28;20178;-66
2023/12/16 09:14:04;;;;;;;19.90;4.30;;;25.20;74.80;;;;;;5051812;28;20259;-69
2023/12/16 09:16:33;;;;;;;12.37;3.27;;;25.30;75.00;;;;;;5054952;28;20226;-68
2023/12/16 09:19:07;;;;;;;17.40;3.47;;;25.10;74.80;;;;;;5053578;28;20697;-71
2023/12/16 09:21:34;;;;;;;17.30;3.67;;;25.00;75.40;;;;;;5054608;28;20180;-70
2023/12/16 09:24:02;;;;;;;13.30;3.27;;;25.00;75.30;;;;;;5055937;28;20188;-74
2023/12/16 09:26:30;;;;;;;10.70;3.17;;;25.00;75.20;;;;;;5054327;28;20180;-74
2023/12/16 09:28:57;;;;;;;13.40;3.33;;;24.90;74.80;;;;;;5054967;28;20194;-73
2023/12/16 09:31:24;;;;;;;17.27;3.70;;;24.80;74.10;;;;;;5051332;28;20219;-72
2023/12/16 09:33:52;;;;;;;10.80;3.10;;;24.70;74.60;;;;;;5052478;28;20186;-69
2023/12/16 09:36:19;;;;;;;15.20;3.53;;;24.70;74.60;;;;;;5053390;28;20599;-72
2023/12/16 09:38:47;;;;;;;14.47;3.40;;;24.80;74.10;;;;;;5048535;28;20168;-74
2023/12/16 09:41:33;;;;;;;17.23;3.60;;;24.60;74.80;;;;;;5046864;28;20245;-72
2023/12/16 09:44:03;;;;;;;15.33;3.50;;;24.50;74.70;;;;;;5055107;28;20187;-70
2023/12/16 09:46:32;;;;;;;16.27;3.80;;;24.50;74.80;;;;;;5054710;28;20578;-72
2023/12/16 09:49:03;;;;;;;16.10;3.30;;;24.40;74.80;;;;;;5054494;28;20643;-73
2023/12/16 09:51:30;;;;;;;17.10;3.77;;;24.50;74.60;;;;;;5054320;28;20176;-71
2023/12/16 09:53:58;;;;;;;13.57;2.80;;;24.40;74.50;;;;;;5054139;28;20317;-68
2023/12/16 09:56:30;;;;;;;12.73;3.07;;;24.40;74.30;;;;;;5054580;28;20199;-70
2023/12/16 09:58:58;;;;;;;18.30;3.60;;;24.40;74.20;;;;;;5051398;28;20176;-75
2023/12/16 10:01:26;;;;;;;14.67;3.00;;;24.30;74.40;;;;;;5053375;28;20186;-73
2023/12/16 10:03:53;;;;;;;15.50;3.23;;;24.40;74.60;;;;;;5054496;28;20172;-68
2023/12/16 10:06:20;;;;;;;13.77;3.37;;;24.40;74.90;;;;;;5054211;28;20254;-66
2023/12/16 10:08:48;;;;;;;16.97;3.83;;;24.40;74.80;;;;;;5052166;28;20247;-72
2023/12/16 10:11:16;;;;;;;16.87;3.30;;;24.50;74.80;;;;;;5045153;28;20184;-72
2023/12/16 10:14:05;;;;;;;16.07;3.27;;;24.40;74.40;;;;;;5054356;28;20172;-71
2023/12/16 10:16:32;;;;;;;15.27;4.13;;;24.40;74.20;;;;;;5050926;28;21926;-72
2023/12/16 10:19:00;;;;;;;19.23;3.87;;;24.30;74.50;;;;;;5054185;28;20169;-72
2023/12/16 10:21:33;;;;;;;17.33;3.93;;;24.30;74.90;;;;;;5053876;28;20594;-70
2023/12/16 10:24:02;;;;;;;9.63;2.53;;;24.30;74.80;;;;;;5053370;28;20203;-73
2023/12/16 10:26:33;;;;;;;16.17;3.03;;;24.30;75.00;;;;;;5054043;28;20275;-72
2023/12/16 10:29:05;;;;;;;14.10;2.83;;;24.20;75.60;;;;;;5052450;28;20211;-71
2023/12/16 10:31:34;;;;;;;14.07;2.80;;;24.20;75.60;;;;;;5048881;28;20667;-68
2023/12/16 10:34:02;;;;;;;16.43;3.07;;;24.10;76.30;;;;;;5046740;28;20178;-70
2023/12/16 10:36:31;;;;;;;10.40;3.13;;;24.10;76.70;;;;;;5053737;28;20676;-70
2023/12/16 10:38:58;;;;;;;18.53;3.37;;;24.00;76.80;;;;;;5049444;28;20634;-68
2023/12/16 10:41:26;;;;;;;13.13;2.93;;;24.10;76.80;;;;;;5043972;28;20235;-69
2023/12/16 10:43:53;;;;;;;20.40;3.10;;;24.00;76.90;;;;;;5053180;28;20545;-69
2023/12/16 10:46:22;;;;;;;24.40;4.07;;;24.00;77.30;;;;;;5053649;28;20184;-69
2023/12/16 10:48:50;;;;;;;18.33;4.20;;;24.00;77.10;;;;;;5052247;28;20534;-69
2023/12/16 10:51:19;;;;;;;14.07;3.57;;;24.00;77.30;;;;;;5053577;28;20188;-69
2023/12/16 10:53:57;;;;;;;19.67;3.63;;;24.00;77.00;;;;;;5053557;28;20189;-70
2023/12/16 10:56:37;;;;;;;21.93;3.53;;;23.90;77.10;;;;;;5053106;28;20199;-67
2023/12/16 10:59:34;;;;;;;11.50;2.77;;;24.00;77.30;;;;;;5053516;28;20370;-68
2023/12/16 11:02:06;;;;;;;17.70;3.60;;;24.00;77.00;;;;;;5049631;28;20269;-66
2023/12/16 11:04:39;;;;;;;18.83;3.43;;;23.90;76.90;;;;;;5052868;28;20537;-65
2023/12/16 11:07:14;;;;;;;11.73;3.07;;;23.80;76.70;;;;;;5050986;28;20211;-71
2023/12/16 11:09:42;;;;;;;13.03;3.30;;;23.80;77.10;;;;;;5046968;28;20553;-70
2023/12/16 11:12:10;;;;;;;20.63;3.70;;;23.80;76.70;;;;;;5045327;28;20176;-67
2023/12/16 11:14:38;;;;;;;17.80;3.30;;;23.80;76.50;;;;;;5053653;28;20704;-67
2023/12/16 11:17:49;;;;;;;10.30;2.73;;;23.80;76.60;;;;;;5051432;28;20183;-65
2023/12/16 11:20:26;;;;;;;16.90;2.90;;;23.80;76.80;;;;;;5032002;28;20302;-67
2023/12/16 11:22:55;;;;;;;13.53;2.93;;;23.80;76.40;;;;;;5052368;28;20172;-66
2023/12/16 11:25:23;;;;;;;15.93;3.47;;;23.90;75.80;;;;;;5052862;28;20211;-65
2023/12/16 11:27:51;;;;;;;14.10;3.03;;;23.80;75.80;;;;;;5053075;28;20183;-66
2023/12/16 11:30:22;;;;;;;13.03;2.47;;;23.80;75.90;;;;;;5053179;28;20194;-66
2023/12/16 11:32:54;;;;;;;11.60;3.10;;;23.90;75.20;;;;;;5048847;28;20187;-71
2023/12/16 11:35:39;;;;;;;14.40;2.73;;;23.80;75.20;;;;;;5052531;28;20176;-73
2023/12/16 11:38:08;;;;;;;14.13;2.87;;;23.80;74.90;;;;;;5049663;28;20228;-70
2023/12/16 11:40:52;;;;;;;15.40;3.23;;;23.80;75.00;;;;;;5046707;28;20220;-72
2023/12/16 11:43:47;;;;;;;14.43;2.50;;;23.80;74.20;;;;;;5040768;28;20665;-72
2023/12/16 11:46:37;;;;;;;14.87;3.00;;;23.60;74.60;;;;;;5052536;28;20195;-73
2023/12/16 11:49:07;;;;;;;10.43;2.43;;;23.70;74.70;;;;;;5052438;28;20188;-71
2023/12/16 11:51:37;;;;;;;12.47;2.80;;;23.60;74.40;;;;;;5052606;28;20190;-70
2023/12/16 11:54:05;;;;;;;15.07;3.17;;;23.70;74.60;;;;;;5052476;28;20176;-69
2023/12/16 11:56:33;;;;;;;12.20;3.03;;;23.60;73.60;;;;;;5052664;28;20661;-71
2023/12/16 11:59:04;;;;;;;10.63;2.97;;;23.50;73.60;;;;;;5052569;28;20212;-71
2023/12/16 12:01:33;;;;;;;10.63;2.50;;;23.50;73.60;;;;;;5052361;28;20188;-71
2023/12/16 12:04:02;;;;;;;15.30;2.73;;;23.40;73.80;;;;;;5052727;28;20180;-67
2023/12/16 12:06:30;;;;;;;7.97;2.47;;;23.30;74.30;;;;;;5052223;28;20191;-69
2023/12/16 12:08:57;;;;;;;10.43;2.70;;;23.30;73.90;;;;;;5051037;28;20199;-70
2023/12/16 12:11:25;;;;;;;12.97;2.80;;;23.30;74.20;;;;;;5040529;28;20713;-70
2023/12/16 12:13:55;;;;;;;8.77;2.43;;;23.30;74.50;;;;;;5051061;28;20210;-70
2023/12/16 12:16:23;;;;;;;10.03;2.47;;;23.30;74.20;;;;;;5051974;28;20180;-71
2023/12/16 12:18:50;;;;;;;10.67;2.30;;;23.30;74.10;;;;;;5051752;28;20225;-71
2023/12/16 12:21:18;;;;;;;12.40;2.70;;;23.30;74.60;;;;;;5052086;28;20658;-70
2023/12/16 12:23:45;;;;;;;16.73;3.03;;;23.30;74.30;;;;;;5053801;28;20187;-70
2023/12/16 12:26:12;;;;;;;14.13;2.73;;;23.30;73.90;;;;;;5056843;28;20224;-70
2023/12/16 12:28:40;;;;;;;13.93;2.57;;;23.30;74.40;;;;;;5055160;28;20658;-69
2023/12/16 12:31:08;;;;;;;13.73;3.10;;;23.20;74.70;;;;;;5056151;28;20262;-71
2023/12/16 12:33:36;;;;;;;13.40;2.60;;;23.30;74.60;;;;;;5055760;28;20188;-67
2023/12/16 12:36:04;;;;;;;12.93;2.10;;;23.30;74.70;;;;;;5055427;28;20184;-71
2023/12/16 12:38:33;;;;;;;12.03;2.50;;;23.20;74.60;;;;;;5056083;28;20255;-71
2023/12/16 12:41:06;;;;;;;12.50;2.13;;;23.20;74.70;;;;;;5047867;28;20269;-69
2023/12/16 12:43:35;;;;;;;11.60;2.40;;;23.20;74.70;;;;;;5051366;28;20184;-69
2023/12/16 12:46:13;;;;;;;14.97;2.20;;;23.10;74.80;;;;;;5055398;28;20184;-71
2023/12/16 12:48:57;;;;;;;16.43;2.90;;;23.10;75.10;;;;;;5056287;28;20171;-71
2023/12/16 12:51:26;;;;;;;14.23;2.43;;;23.10;75.20;;;;;;5041530;28;20184;-71